Time;durP1;ratioP1;P1;durP2;ratioP2;P2;SDS_P1;SDS_P2;PMS_P1;PMS_P2;Temp;Humidity;BMP_temperature;BMP_pressure;BME280_temperature;BME280_humidity;BME280_pressure;Samples;Min_cycle;Max_cycle;Signal;HPM_P1;HPM_P2
2021/06/07 00:01:40;;;;;;;1.30;0.88;;;24.40;43.50;;;;;;4969266;28;20227;-61
2021/06/07 00:04:06;;;;;;;1.10;0.90;;;24.40;43.40;;;;;;4971067;28;20204;-61
2021/06/07 00:06:32;;;;;;;0.85;0.85;;;24.40;43.30;;;;;;4969501;28;20236;-61
2021/06/07 00:08:58;;;;;;;1.25;0.82;;;24.30;43.20;;;;;;4970831;28;20217;-60
2021/06/07 00:11:24;;;;;;;1.00;0.73;;;24.40;43.30;;;;;;4964472;28;20248;-61
2021/06/07 00:13:50;;;;;;;1.10;1.00;;;24.40;43.30;;;;;;4970508;28;20224;-61
2021/06/07 00:16:16;;;;;;;0.90;0.90;;;24.40;43.30;;;;;;4971158;28;20208;-61
2021/06/07 00:18:42;;;;;;;1.60;1.00;;;24.40;43.30;;;;;;4972186;28;20275;-61
2021/06/07 00:21:08;;;;;;;0.82;0.82;;;24.40;43.30;;;;;;4975342;28;20220;-60
2021/06/07 00:23:34;;;;;;;0.90;0.90;;;24.40;43.30;;;;;;4975033;28;20211;-61
2021/06/07 00:26:00;;;;;;;1.25;0.90;;;24.40;43.30;;;;;;4975082;28;20204;-62
2021/06/07 00:28:26;;;;;;;1.33;1.00;;;24.40;43.30;;;;;;4974354;28;20271;-61
2021/06/07 00:30:52;;;;;;;1.13;0.90;;;24.40;43.30;;;;;;4974546;28;20228;-61
2021/06/07 00:33:18;;;;;;;1.00;0.73;;;24.40;43.30;;;;;;4973786;28;20219;-61
2021/06/07 00:35:44;;;;;;;1.35;0.80;;;24.40;43.30;;;;;;4974459;28;20201;-61
2021/06/07 00:38:09;;;;;;;1.17;0.90;;;24.40;43.30;;;;;;4974679;28;20667;-61
2021/06/07 00:40:35;;;;;;;0.95;0.80;;;24.40;43.30;;;;;;4974357;28;20275;-61
2021/06/07 00:43:01;;;;;;;0.80;0.80;;;24.40;43.30;;;;;;4974540;28;20669;-60
2021/06/07 00:45:27;;;;;;;1.05;0.90;;;24.40;43.30;;;;;;4975277;28;20211;-62
2021/06/07 00:47:53;;;;;;;0.95;0.93;;;24.40;43.30;;;;;;4972379;28;20212;-61
2021/06/07 00:50:19;;;;;;;0.85;0.80;;;24.40;43.30;;;;;;4970893;28;20232;-60
2021/06/07 00:53:00;;;;;;;0.90;0.90;;;24.40;43.30;;;;;;4973934;28;20267;-63
2021/06/07 00:55:26;;;;;;;1.75;1.00;;;24.40;43.40;;;;;;4971876;28;20224;-60
2021/06/07 00:57:52;;;;;;;2.95;0.90;;;24.40;43.40;;;;;;4973714;28;20200;-60
2021/06/07 01:00:18;;;;;;;2.00;0.88;;;24.40;43.40;;;;;;4970292;28;20594;-60
2021/06/07 01:02:44;;;;;;;1.52;0.82;;;24.40;43.30;;;;;;4974813;28;20197;-60
2021/06/07 01:05:10;;;;;;;1.58;1.00;;;24.40;43.30;;;;;;4972533;28;20223;-61
2021/06/07 01:07:36;;;;;;;0.85;0.85;;;24.40;43.50;;;;;;4974547;28;20219;-61
2021/06/07 01:10:02;;;;;;;0.90;0.90;;;24.40;43.50;;;;;;4973151;28;20228;-60
2021/06/07 01:12:28;;;;;;;0.98;0.95;;;24.40;43.30;;;;;;4974449;28;20706;-61
2021/06/07 01:14:54;;;;;;;1.10;0.90;;;24.40;43.40;;;;;;4967544;28;20252;-61
2021/06/07 01:17:20;;;;;;;2.25;1.10;;;24.30;43.20;;;;;;4955131;28;20535;-60
2021/06/07 01:19:46;;;;;;;1.65;0.80;;;24.40;43.30;;;;;;4965227;28;20211;-61
2021/06/07 01:22:12;;;;;;;1.40;0.80;;;24.40;43.30;;;;;;4972387;28;20205;-60
2021/06/07 01:24:38;;;;;;;0.93;0.90;;;24.40;43.40;;;;;;4974347;28;20267;-61
2021/06/07 01:27:04;;;;;;;3.05;1.67;;;24.30;43.20;;;;;;4972102;28;20208;-61
2021/06/07 01:29:30;;;;;;;1.52;1.05;;;24.40;43.30;;;;;;4974133;28;20212;-60
2021/06/07 01:31:56;;;;;;;1.10;1.00;;;24.40;43.30;;;;;;4972984;28;20235;-60
2021/06/07 01:34:22;;;;;;;1.77;0.80;;;24.30;43.20;;;;;;4965808;28;20209;-61
2021/06/07 01:36:48;;;;;;;0.73;0.70;;;24.30;43.20;;;;;;4964920;28;20201;-60
2021/06/07 01:39:14;;;;;;;0.80;0.80;;;24.30;43.20;;;;;;4974402;28;20605;-61
2021/06/07 01:41:40;;;;;;;0.82;0.82;;;24.40;43.30;;;;;;4973084;28;20231;-62
2021/06/07 01:44:06;;;;;;;1.30;1.00;;;24.30;43.20;;;;;;4973745;28;20244;-61
2021/06/07 01:46:32;;;;;;;1.83;1.58;;;24.30;43.20;;;;;;4972619;28;20197;-61
2021/06/07 01:48:58;;;;;;;0.85;0.80;;;24.30;43.20;;;;;;4969000;28;20201;-61
2021/06/07 01:51:24;;;;;;;1.25;0.95;;;24.30;43.20;;;;;;4973774;28;20235;-61
2021/06/07 01:53:50;;;;;;;1.17;1.08;;;24.30;43.20;;;;;;4972150;28;20204;-61
2021/06/07 01:56:16;;;;;;;1.25;0.85;;;24.30;43.20;;;;;;4972504;28;20219;-61
2021/06/07 01:58:42;;;;;;;1.05;0.90;;;24.30;43.20;;;;;;4972088;28;20205;-61
2021/06/07 02:01:08;;;;;;;0.80;0.80;;;24.30;43.20;;;;;;4961690;28;20225;-61
2021/06/07 02:03:34;;;;;;;1.40;0.98;;;24.30;43.20;;;;;;4968995;28;20205;-61
2021/06/07 02:06:00;;;;;;;1.05;0.90;;;24.30;43.20;;;;;;4972259;28;20243;-61
2021/06/07 02:08:29;;;;;;;0.95;0.80;;;24.30;43.20;;;;;;4973199;28;20695;-61
2021/06/07 02:10:55;;;;;;;1.35;1.10;;;24.30;43.20;;;;;;4973053;28;20228;-59
2021/06/07 02:13:21;;;;;;;1.02;0.93;;;24.30;43.20;;;;;;4972682;28;20724;-59
2021/06/07 02:15:47;;;;;;;0.85;0.85;;;24.30;43.20;;;;;;4972143;28;20220;-60
2021/06/07 02:18:13;;;;;;;1.30;0.82;;;24.30;43.20;;;;;;4970712;28;20210;-59
2021/06/07 02:20:39;;;;;;;1.95;1.00;;;24.30;43.20;;;;;;4972083;28;20228;-59
2021/06/07 02:23:05;;;;;;;1.10;1.00;;;24.30;43.20;;;;;;4973175;28;20721;-59
2021/06/07 02:25:31;;;;;;;0.80;0.80;;;24.30;43.20;;;;;;4970815;28;20204;-60
2021/06/07 02:27:57;;;;;;;1.67;1.10;;;24.30;43.20;;;;;;4972636;28;20215;-60
2021/06/07 02:30:23;;;;;;;2.30;1.17;;;24.30;43.20;;;;;;4972802;28;20235;-60
2021/06/07 02:32:49;;;;;;;1.08;0.82;;;24.30;43.20;;;;;;4972750;28;20267;-60
2021/06/07 02:35:15;;;;;;;0.77;0.77;;;24.30;43.20;;;;;;4970120;28;20267;-60
2021/06/07 02:37:41;;;;;;;1.13;1.00;;;24.30;43.20;;;;;;4973024;28;20227;-60
2021/06/07 02:40:07;;;;;;;1.13;0.90;;;24.30;43.20;;;;;;4971515;28;20228;-60
2021/06/07 02:42:33;;;;;;;1.05;0.95;;;24.30;43.20;;;;;;4971621;28;20201;-60
2021/06/07 02:44:59;;;;;;;1.30;0.88;;;24.30;43.20;;;;;;4971957;28;20251;-59
2021/06/07 02:47:25;;;;;;;1.23;1.00;;;24.30;43.20;;;;;;4972411;28;20606;-61
2021/06/07 02:49:51;;;;;;;0.75;0.75;;;24.30;43.20;;;;;;4972824;28;20227;-61
2021/06/07 02:52:17;;;;;;;0.90;0.80;;;24.30;43.20;;;;;;4970960;28;20240;-60
2021/06/07 02:54:43;;;;;;;1.65;1.10;;;24.30;43.20;;;;;;4972822;28;20200;-61
2021/06/07 02:57:09;;;;;;;1.27;0.80;;;24.30;43.90;;;;;;4969390;28;20208;-61
2021/06/07 02:59:35;;;;;;;0.80;0.80;;;24.30;43.20;;;;;;4971722;28;20233;-65
2021/06/07 03:02:01;;;;;;;0.80;0.80;;;24.30;43.20;;;;;;4968836;28;20617;-61
2021/06/07 03:04:27;;;;;;;1.40;0.90;;;24.30;43.20;;;;;;4972501;28;20216;-60
2021/06/07 03:06:53;;;;;;;1.00;0.85;;;24.30;43.20;;;;;;4971623;28;20584;-60
2021/06/07 03:09:19;;;;;;;1.23;0.90;;;24.30;43.20;;;;;;4972674;28;20232;-60
2021/06/07 03:11:46;;;;;;;0.98;0.70;;;24.30;43.20;;;;;;4967911;28;20232;-61
2021/06/07 03:14:12;;;;;;;1.00;0.70;;;24.30;43.20;;;;;;4972005;28;20204;-62
2021/06/07 03:16:38;;;;;;;1.20;0.98;;;24.30;43.20;;;;;;4964094;28;20206;-61
2021/06/07 03:19:04;;;;;;;0.90;0.90;;;24.30;43.20;;;;;;4953407;28;20221;-60
2021/06/07 03:21:30;;;;;;;0.90;0.80;;;24.30;43.20;;;;;;4970514;28;20260;-60
2021/06/07 03:23:56;;;;;;;0.80;0.80;;;24.30;43.20;;;;;;4971467;28;20200;-61
2021/06/07 03:26:22;;;;;;;0.82;0.80;;;24.30;43.20;;;;;;4971124;28;20207;-60
2021/06/07 03:28:48;;;;;;;1.10;1.00;;;24.30;43.20;;;;;;4971295;28;20235;-60
2021/06/07 03:31:14;;;;;;;0.88;0.88;;;24.30;43.20;;;;;;4971557;28;20282;-60
2021/06/07 03:33:39;;;;;;;0.55;0.55;;;24.30;43.20;;;;;;4971629;28;20554;-61
2021/06/07 03:36:05;;;;;;;0.80;0.80;;;24.30;43.20;;;;;;4970997;28;20231;-61
2021/06/07 03:38:31;;;;;;;1.30;1.20;;;24.30;43.20;;;;;;4972400;28;20244;-61
2021/06/07 03:40:57;;;;;;;0.95;0.75;;;24.30;43.20;;;;;;4971155;28;20292;-61
2021/06/07 03:43:23;;;;;;;1.08;0.98;;;24.30;43.20;;;;;;4971029;28;20196;-59
2021/06/07 03:45:49;;;;;;;0.93;0.88;;;24.30;43.20;;;;;;4971150;28;20232;-59
2021/06/07 03:48:15;;;;;;;1.00;0.90;;;24.30;43.20;;;;;;4971836;28;20216;-60
2021/06/07 03:50:41;;;;;;;0.80;0.80;;;24.30;43.20;;;;;;4967726;28;20235;-61
2021/06/07 03:53:07;;;;;;;1.45;0.85;;;24.30;43.20;;;;;;4970753;28;20215;-59
2021/06/07 03:55:33;;;;;;;1.05;0.90;;;24.30;43.20;;;;;;4971718;28;20516;-61
2021/06/07 03:57:59;;;;;;;0.77;0.70;;;24.30;43.20;;;;;;4969088;28;20201;-59
2021/06/07 04:00:25;;;;;;;0.88;0.80;;;24.30;43.00;;;;;;4970370;28;20274;-58
2021/06/07 04:02:51;;;;;;;0.70;0.70;;;24.30;43.20;;;;;;4968729;28;20257;-59
2021/06/07 04:05:17;;;;;;;0.98;0.88;;;24.30;43.20;;;;;;4971777;28;20620;-59
2021/06/07 04:07:43;;;;;;;0.95;0.88;;;24.30;43.20;;;;;;4970479;28;20204;-58
2021/06/07 04:10:09;;;;;;;1.00;0.75;;;24.30;43.20;;;;;;4971428;28;20224;-60
2021/06/07 04:12:35;;;;;;;2.08;1.10;;;24.30;43.20;;;;;;4971058;28;20212;-59
2021/06/07 04:15:01;;;;;;;0.73;0.73;;;24.30;43.20;;;;;;4971592;28;20309;-61
2021/06/07 04:17:27;;;;;;;0.80;0.80;;;24.30;43.20;;;;;;4969035;28;20703;-59
2021/06/07 04:19:53;;;;;;;0.73;0.73;;;24.30;43.20;;;;;;4971117;28;20248;-59
2021/06/07 04:22:19;;;;;;;1.10;0.90;;;24.30;43.20;;;;;;4969680;28;20344;-59
2021/06/07 04:24:46;;;;;;;1.55;0.80;;;24.30;43.20;;;;;;4971389;28;20292;-59
2021/06/07 04:27:13;;;;;;;1.58;1.08;;;24.30;43.20;;;;;;4969932;28;20236;-59
2021/06/07 04:29:39;;;;;;;2.33;0.80;;;24.30;43.20;;;;;;4971501;28;20228;-59
2021/06/07 04:32:05;;;;;;;1.25;1.00;;;24.30;43.20;;;;;;4970425;28;20239;-59
2021/06/07 04:34:31;;;;;;;0.80;0.80;;;24.30;43.20;;;;;;4971001;28;20811;-59
2021/06/07 04:36:57;;;;;;;0.80;0.80;;;24.30;43.20;;;;;;4970253;28;20271;-59
2021/06/07 04:39:23;;;;;;;0.95;0.80;;;24.30;43.20;;;;;;4970403;28;20224;-60
2021/06/07 04:41:49;;;;;;;1.15;0.88;;;24.30;43.30;;;;;;4970949;28;20208;-59
2021/06/07 04:44:15;;;;;;;1.38;0.80;;;24.30;43.20;;;;;;4971264;28;20201;-59
2021/06/07 04:46:41;;;;;;;1.38;0.70;;;24.30;43.20;;;;;;4969467;28;20271;-59
2021/06/07 04:49:07;;;;;;;0.90;0.90;;;24.30;43.20;;;;;;4971615;28;20225;-59
2021/06/07 04:51:33;;;;;;;0.85;0.70;;;24.30;43.20;;;;;;4969650;28;20236;-59
2021/06/07 04:53:59;;;;;;;1.05;0.80;;;24.30;43.20;;;;;;4971485;28;20201;-61
2021/06/07 04:56:25;;;;;;;0.82;0.82;;;24.30;43.20;;;;;;4969838;28;20577;-59
2021/06/07 04:58:51;;;;;;;0.70;0.70;;;24.30;43.20;;;;;;4971147;28;20231;-60
2021/06/07 05:01:17;;;;;;;0.90;0.90;;;24.30;43.20;;;;;;4968864;28;20788;-59
2021/06/07 05:03:43;;;;;;;0.75;0.73;;;24.30;43.20;;;;;;4969371;28;20255;-58
2021/06/07 05:06:09;;;;;;;0.98;0.88;;;24.30;43.20;;;;;;4972222;28;20204;-59
2021/06/07 05:08:35;;;;;;;0.85;0.85;;;24.30;43.20;;;;;;4974156;28;20626;-60
2021/06/07 05:11:01;;;;;;;1.35;0.80;;;24.30;43.20;;;;;;4972940;28;20239;-61
2021/06/07 05:13:27;;;;;;;0.80;0.70;;;24.30;43.20;;;;;;4973982;28;20205;-59
2021/06/07 05:15:53;;;;;;;1.08;0.98;;;24.30;43.20;;;;;;4973802;28;20197;-59
2021/06/07 05:18:19;;;;;;;0.95;0.70;;;24.30;43.20;;;;;;4973983;28;20220;-60
2021/06/07 05:20:45;;;;;;;2.15;0.95;;;24.30;43.20;;;;;;4973257;28;20204;-59
2021/06/07 05:23:11;;;;;;;0.70;0.70;;;24.30;43.20;;;;;;4974029;28;20212;-60
2021/06/07 05:25:37;;;;;;;0.98;0.80;;;24.30;43.20;;;;;;4973925;28;20227;-60
2021/06/07 05:28:03;;;;;;;0.70;0.70;;;24.30;43.20;;;;;;4973464;28;20220;-60
2021/06/07 05:30:29;;;;;;;1.00;0.90;;;24.30;43.20;;;;;;4970754;28;20224;-61
2021/06/07 05:32:55;;;;;;;0.80;0.80;;;24.30;43.20;;;;;;4972500;28;20204;-59
2021/06/07 05:35:21;;;;;;;1.17;0.85;;;24.30;43.20;;;;;;4973984;28;20201;-59
2021/06/07 05:37:47;;;;;;;1.08;1.02;;;24.30;43.20;;;;;;4973012;28;20281;-59
2021/06/07 05:40:13;;;;;;;1.10;1.00;;;24.30;43.20;;;;;;4973933;28;20708;-60
2021/06/07 05:42:39;;;;;;;0.80;0.80;;;24.30;43.20;;;;;;4973689;28;20217;-59
2021/06/07 05:45:05;;;;;;;0.95;0.70;;;24.30;43.20;;;;;;4973630;28;20649;-60
2021/06/07 05:47:31;;;;;;;1.58;1.00;;;24.30;43.20;;;;;;4973204;28;20224;-60
2021/06/07 05:49:57;;;;;;;0.98;0.80;;;24.30;43.20;;;;;;4971598;28;20684;-60
2021/06/07 05:52:23;;;;;;;0.82;0.80;;;24.30;43.20;;;;;;4968482;28;20294;-59
2021/06/07 05:54:49;;;;;;;0.70;0.70;;;24.30;43.20;;;;;;4972517;28;20200;-60
2021/06/07 05:57:15;;;;;;;1.00;0.90;;;24.30;43.20;;;;;;4973684;28;20224;-57
2021/06/07 05:59:43;;;;;;;2.42;1.67;;;24.30;43.20;;;;;;4973181;28;20208;-60
2021/06/07 06:02:09;;;;;;;0.60;0.60;;;24.30;43.20;;;;;;4972924;28;20620;-59
2021/06/07 06:04:35;;;;;;;0.80;0.80;;;24.30;43.20;;;;;;4970565;28;20255;-60
2021/06/07 06:07:01;;;;;;;0.70;0.70;;;24.30;43.00;;;;;;4971800;28;20229;-59
2021/06/07 06:09:27;;;;;;;1.50;0.80;;;24.30;43.00;;;;;;4973475;28;20235;-60
2021/06/07 06:11:53;;;;;;;0.68;0.68;;;24.30;42.90;;;;;;4972960;28;20232;-59
2021/06/07 06:14:19;;;;;;;0.75;0.75;;;24.30;43.70;;;;;;4973415;28;20205;-60
2021/06/07 06:16:45;;;;;;;0.80;0.80;;;24.30;43.00;;;;;;4969991;28;20232;-60
2021/06/07 06:19:11;;;;;;;0.75;0.75;;;24.30;42.90;;;;;;4973690;28;20209;-59
2021/06/07 06:21:39;;;;;;;0.80;0.80;;;24.30;42.50;;;;;;4967960;28;20212;-58
2021/06/07 06:24:05;;;;;;;1.40;0.80;;;24.40;42.60;;;;;;4967164;28;20307;-58
2021/06/07 06:26:31;;;;;;;0.70;0.70;;;24.40;42.70;;;;;;4972180;28;20223;-58
2021/06/07 06:28:57;;;;;;;1.30;0.80;;;24.30;42.40;;;;;;4972534;28;20215;-59
2021/06/07 06:31:23;;;;;;;1.23;0.88;;;24.40;42.70;;;;;;4970277;28;20708;-60
2021/06/07 06:33:49;;;;;;;0.80;0.80;;;24.30;42.50;;;;;;4972644;28;20247;-59
2021/06/07 06:36:15;;;;;;;1.13;0.70;;;24.30;42.60;;;;;;4964937;28;20225;-57
2021/06/07 06:38:41;;;;;;;1.02;0.90;;;24.30;42.60;;;;;;4966471;28;20657;-58
2021/06/07 06:41:07;;;;;;;0.70;0.70;;;24.40;42.70;;;;;;4971762;28;20259;-58
2021/06/07 06:43:33;;;;;;;0.70;0.70;;;24.40;42.70;;;;;;4972514;28;20208;-60
2021/06/07 06:45:59;;;;;;;0.80;0.80;;;24.30;42.70;;;;;;4971433;28;20213;-58
2021/06/07 06:48:25;;;;;;;0.70;0.70;;;24.40;42.50;;;;;;4971312;28;20288;-58
2021/06/07 06:50:51;;;;;;;1.48;0.80;;;24.40;42.60;;;;;;4972488;28;20580;-58
2021/06/07 06:53:17;;;;;;;0.98;0.70;;;24.30;42.40;;;;;;4967770;28;20292;-60
2021/06/07 06:55:43;;;;;;;1.17;0.80;;;24.40;43.30;;;;;;4972064;28;20216;-59
2021/06/07 06:58:09;;;;;;;1.95;0.90;;;24.40;43.10;;;;;;4969398;28;20228;-61
2021/06/07 07:00:36;;;;;;;1.83;0.80;;;24.40;42.80;;;;;;4972603;28;20585;-49
2021/06/07 07:03:02;;;;;;;2.05;0.90;;;24.50;64.30;;;;;;4971524;28;20200;-53
2021/06/07 07:05:28;;;;;;;5.30;1.30;;;24.50;44.60;;;;;;4966210;28;20216;-46
2021/06/07 07:07:54;;;;;;;1.92;0.98;;;24.60;63.60;;;;;;4968733;28;20282;-50
2021/06/07 07:10:20;;;;;;;2.40;0.82;;;24.60;62.70;;;;;;4970614;28;20284;-42
2021/06/07 07:12:47;;;;;;;2.65;0.98;;;24.50;62.60;;;;;;4970852;28;20201;-45
2021/06/07 07:15:13;;;;;;;1.98;0.77;;;24.50;63.80;;;;;;4970882;28;20208;-42
2021/06/07 07:17:39;;;;;;;1.50;0.90;;;24.40;64.00;;;;;;4970752;28;20633;-53
2021/06/07 07:20:05;;;;;;;1.90;0.80;;;24.60;68.80;;;;;;4971325;28;20208;-46
2021/06/07 07:22:31;;;;;;;1.85;0.98;;;24.50;71.20;;;;;;4970468;28;20208;-46
2021/06/07 07:24:57;;;;;;;2.78;1.48;;;24.50;69.10;;;;;;4971509;28;20577;-44
2021/06/07 07:27:24;;;;;;;3.60;1.05;;;24.50;42.50;;;;;;4969422;28;20243;-43
2021/06/07 07:29:50;;;;;;;10.98;1.23;;;24.50;42.80;;;;;;4970618;28;20711;-45
2021/06/07 07:32:16;;;;;;;2.05;1.02;;;24.60;43.60;;;;;;4967707;28;20236;-47
2021/06/07 07:34:42;;;;;;;5.20;1.05;;;24.60;43.40;;;;;;4970739;28;20259;-44
2021/06/07 07:37:08;;;;;;;2.00;1.00;;;24.50;45.50;;;;;;4972073;28;20236;-44
2021/06/07 07:39:34;;;;;;;1.35;0.90;;;24.50;45.90;;;;;;4970250;28;20252;-46
2021/06/07 07:42:00;;;;;;;2.17;1.08;;;24.50;46.30;;;;;;4962934;28;20200;-49
2021/06/07 07:44:26;;;;;;;1.98;1.10;;;24.50;46.40;;;;;;4971675;28;20569;-47
2021/06/07 07:46:52;;;;;;;9.38;1.42;;;24.50;46.50;;;;;;4970718;28;20216;-48
2021/06/07 07:49:18;;;;;;;4.28;1.75;;;24.40;46.70;;;;;;4969427;28;20300;-49
2021/06/07 07:51:44;;;;;;;3.25;1.50;;;24.30;47.00;;;;;;4969219;28;20243;-49
2021/06/07 07:54:10;;;;;;;4.80;1.45;;;24.00;46.80;;;;;;4971715;28;20204;-46
2021/06/07 07:56:36;;;;;;;3.53;2.30;;;23.90;45.40;;;;;;4969969;28;20220;-49
2021/06/07 07:59:02;;;;;;;2.58;1.88;;;23.80;46.80;;;;;;4971443;28;20208;-49
2021/06/07 08:01:28;;;;;;;1.48;1.35;;;23.70;46.60;;;;;;4970691;28;20211;-48
2021/06/07 08:03:54;;;;;;;1.80;1.40;;;23.80;46.50;;;;;;4970563;28;20239;-46
2021/06/07 08:06:20;;;;;;;1.48;1.30;;;24.00;46.40;;;;;;4970994;28;20251;-48
2021/06/07 08:08:46;;;;;;;1.40;1.30;;;24.10;46.70;;;;;;4970943;28;20212;-50
2021/06/07 08:11:12;;;;;;;3.90;1.30;;;24.10;47.70;;;;;;4971053;28;20696;-46
2021/06/07 08:13:38;;;;;;;1.50;1.30;;;24.20;47.80;;;;;;4969928;28;20220;-45
2021/06/07 08:16:04;;;;;;;1.65;1.35;;;24.30;47.90;;;;;;4969897;28;20220;-47
2021/06/07 08:18:30;;;;;;;1.40;1.30;;;24.30;47.90;;;;;;4966027;28;20254;-45
2021/06/07 08:20:56;;;;;;;1.52;1.42;;;24.30;47.90;;;;;;4971025;28;20200;-45
2021/06/07 08:23:22;;;;;;;2.25;1.42;;;24.30;47.90;;;;;;4970676;28;20204;-45
2021/06/07 08:25:48;;;;;;;1.88;1.20;;;24.30;47.60;;;;;;4969900;28;20236;-48
2021/06/07 08:28:14;;;;;;;1.50;1.40;;;24.30;47.90;;;;;;4968043;28;20211;-48
2021/06/07 08:30:40;;;;;;;1.20;1.02;;;24.30;47.90;;;;;;4969200;28;20212;-46
2021/06/07 08:33:06;;;;;;;1.83;1.10;;;24.30;47.40;;;;;;4969017;28;20215;-45
2021/06/07 08:35:32;;;;;;;1.70;1.20;;;24.40;47.10;;;;;;4969693;28;20232;-45
2021/06/07 08:37:58;;;;;;;1.20;1.10;;;24.50;46.30;;;;;;4970025;28;20212;-47
2021/06/07 08:40:24;;;;;;;1.40;1.30;;;24.50;46.40;;;;;;4970627;28;20585;-50
2021/06/07 08:42:50;;;;;;;1.58;0.90;;;24.50;45.90;;;;;;4968782;28;20200;-46
2021/06/07 08:45:16;;;;;;;2.10;1.20;;;24.50;45.40;;;;;;4968229;28;20228;-50
2021/06/07 08:47:42;;;;;;;1.33;1.10;;;24.60;45.50;;;;;;4972885;28;20225;-44
2021/06/07 08:50:08;;;;;;;1.92;1.02;;;24.60;45.60;;;;;;4974976;28;20252;-49
2021/06/07 08:52:34;;;;;;;1.02;1.00;;;24.50;46.00;;;;;;4974103;28;20260;-44
2021/06/07 08:55:00;;;;;;;0.90;0.90;;;24.60;46.10;;;;;;4973698;28;20755;-45
2021/06/07 08:57:26;;;;;;;1.63;0.90;;;24.60;46.10;;;;;;4974838;28;20204;-45
2021/06/07 08:59:52;;;;;;;1.90;1.25;;;24.50;46.00;;;;;;4973980;28;20205;-44
2021/06/07 09:02:18;;;;;;;1.23;1.00;;;24.50;47.10;;;;;;4974037;28;20212;-51
2021/06/07 09:04:44;;;;;;;1.10;1.00;;;24.50;47.70;;;;;;4973873;28;20691;-45
2021/06/07 09:07:10;;;;;;;1.00;1.00;;;24.50;47.50;;;;;;4967686;28;20240;-47
2021/06/07 09:09:36;;;;;;;2.65;1.25;;;24.50;47.90;;;;;;4974138;28;20280;-47
2021/06/07 09:12:06;;;;;;;1.83;1.00;;;24.50;47.50;;;;;;4973621;28;20709;-45
2021/06/07 09:14:32;;;;;;;1.35;1.20;;;24.40;47.80;;;;;;4974597;28;20212;-43
2021/06/07 09:16:58;;;;;;;1.50;1.20;;;24.50;48.10;;;;;;4972232;28;20684;-45
2021/06/07 09:19:24;;;;;;;3.30;1.48;;;24.40;47.40;;;;;;4962657;28;20232;-44
2021/06/07 09:21:50;;;;;;;3.30;1.20;;;24.50;47.00;;;;;;4967733;28;20209;-44
2021/06/07 09:24:16;;;;;;;2.28;1.27;;;24.50;46.10;;;;;;4974186;28;20216;-46
2021/06/07 09:26:42;;;;;;;1.40;1.23;;;24.50;45.50;;;;;;4973376;28;20207;-44
2021/06/07 09:29:09;;;;;;;1.67;1.10;;;24.60;45.20;;;;;;4974540;28;20208;-44
2021/06/07 09:31:35;;;;;;;1.75;1.08;;;24.50;45.40;;;;;;4974323;28;20236;-45
2021/06/07 09:34:03;;;;;;;1.27;1.17;;;24.60;45.90;;;;;;4974761;28;20215;-44
2021/06/07 09:36:29;;;;;;;1.25;1.00;;;24.60;45.90;;;;;;4973373;28;20220;-49
2021/06/07 09:38:55;;;;;;;2.35;1.15;;;24.60;46.00;;;;;;4973836;28;20208;-45
2021/06/07 09:41:21;;;;;;;1.27;1.17;;;24.60;46.00;;;;;;4974357;28;20540;-45
2021/06/07 09:43:47;;;;;;;1.10;1.00;;;24.50;45.80;;;;;;4973584;28;20207;-46
2021/06/07 09:46:13;;;;;;;1.50;1.10;;;24.60;45.80;;;;;;4973480;28;20235;-45
2021/06/07 09:48:39;;;;;;;1.27;1.10;;;24.60;46.00;;;;;;4974102;28;20209;-46
2021/06/07 09:51:05;;;;;;;2.58;1.10;;;24.60;46.10;;;;;;4973731;28;20545;-48
2021/06/07 09:53:31;;;;;;;1.23;1.13;;;24.60;46.50;;;;;;4973765;28;20210;-44
2021/06/07 09:55:57;;;;;;;2.03;1.20;;;24.60;46.60;;;;;;4963352;28;20288;-48
2021/06/07 09:58:23;;;;;;;2.53;1.20;;;24.60;46.70;;;;;;4966135;28;20204;-45
2021/06/07 10:00:51;;;;;;;2.72;1.27;;;24.50;46.60;;;;;;4973781;28;20219;-45
2021/06/07 10:03:17;;;;;;;3.00;1.20;;;24.60;46.60;;;;;;4969156;28;20254;-46
2021/06/07 10:05:43;;;;;;;1.50;1.15;;;24.60;46.00;;;;;;4969516;28;20228;-46
2021/06/07 10:08:09;;;;;;;2.47;1.40;;;24.60;46.60;;;;;;4972157;28;20252;-45
2021/06/07 10:10:35;;;;;;;2.78;1.60;;;24.70;46.80;;;;;;4969478;28;20208;-42
2021/06/07 10:13:01;;;;;;;8.05;2.85;;;24.60;46.40;;;;;;4972818;28;20532;-51
2021/06/07 10:15:27;;;;;;;4.82;2.03;;;24.70;48.30;;;;;;4969680;28;20231;-44
2021/06/07 10:17:53;;;;;;;6.60;2.17;;;24.70;46.60;;;;;;4971325;28;20201;-44
2021/06/07 10:23:15;;;;;;;4.63;2.40;;;24.70;46.50;;;;;;4920942;29;20553;-44
2021/06/07 10:25:41;;;;;;;7.45;2.47;;;24.70;46.50;;;;;;4956227;28;20231;-45
2021/06/07 10:28:07;;;;;;;19.83;11.57;;;24.70;48.30;;;;;;4972782;28;20197;-46
2021/06/07 10:30:33;;;;;;;21.00;12.93;;;24.80;48.10;;;;;;4973121;28;20692;-45
2021/06/07 10:32:59;;;;;;;65.03;45.60;;;24.70;47.60;;;;;;4972490;28;20211;-45
2021/06/07 10:35:25;;;;;;;64.75;47.15;;;24.80;48.40;;;;;;4969311;28;20221;-45
2021/06/07 10:37:50;;;;;;;140.98;94.60;;;24.80;49.70;;;;;;4965079;28;20658;-46
2021/06/07 10:40:16;;;;;;;150.43;100.55;;;24.80;48.60;;;;;;4970950;28;20213;-47
2021/06/07 10:42:42;;;;;;;138.18;98.65;;;24.80;48.90;;;;;;4968415;28;20260;-45
2021/06/07 10:45:08;;;;;;;147.07;101.85;;;24.90;48.50;;;;;;4970148;28;20774;-43
2021/06/07 10:47:35;;;;;;;143.07;104.10;;;24.90;48.50;;;;;;4966763;28;20209;-43
2021/06/07 10:50:01;;;;;;;149.02;98.80;;;24.90;49.70;;;;;;4969524;28;20645;-48
2021/06/07 10:52:27;;;;;;;140.05;99.57;;;24.90;48.50;;;;;;4971078;28;20330;-46
2021/06/07 10:54:53;;;;;;;111.28;82.25;;;24.90;49.10;;;;;;4969044;28;20589;-48
2021/06/07 10:57:19;;;;;;;123.88;79.40;;;24.90;48.20;;;;;;4969774;28;20283;-44
2021/06/07 10:59:45;;;;;;;118.35;79.68;;;24.80;47.00;;;;;;4972500;28;20204;-43
2021/06/07 11:02:11;;;;;;;105.88;70.22;;;24.80;46.40;;;;;;4972037;28;20204;-51
2021/06/07 11:04:37;;;;;;;116.22;75.72;;;24.70;45.70;;;;;;4964205;28;20712;-47
2021/06/07 11:07:03;;;;;;;106.05;70.30;;;24.70;45.40;;;;;;4965374;28;20213;-48
2021/06/07 11:09:29;;;;;;;103.85;73.15;;;24.70;45.20;;;;;;4971171;28;20200;-46
2021/06/07 11:11:55;;;;;;;105.78;67.75;;;24.70;45.00;;;;;;4964796;28;20578;-44
2021/06/07 11:14:23;;;;;;;103.28;64.85;;;24.70;44.80;;;;;;4971584;28;20225;-45
2021/06/07 11:16:49;;;;;;;97.28;65.53;;;24.80;45.00;;;;;;4971043;28;20290;-48
2021/06/07 11:19:15;;;;;;;92.97;62.28;;;24.80;44.90;;;;;;4969773;28;20588;-53
2021/06/07 11:21:43;;;;;;;100.97;62.20;;;24.70;44.90;;;;;;4960912;28;20208;-50
2021/06/07 11:24:09;;;;;;;68.97;48.97;;;24.70;45.00;;;;;;4968582;28;20235;-49
2021/06/07 11:26:35;;;;;;;68.30;48.00;;;24.70;45.20;;;;;;4970205;28;20204;-48
2021/06/07 11:29:01;;;;;;;73.15;48.22;;;24.70;44.90;;;;;;4968963;28;20224;-47
2021/06/07 11:31:27;;;;;;;71.85;51.58;;;24.70;45.00;;;;;;4970061;28;20224;-45
2021/06/07 11:33:53;;;;;;;75.05;52.78;;;24.70;45.80;;;;;;4966315;28;20227;-48
2021/06/07 11:36:19;;;;;;;80.50;51.70;;;24.80;46.50;;;;;;4968430;28;20235;-45
2021/06/07 11:38:45;;;;;;;75.68;46.50;;;24.80;46.80;;;;;;4969048;28;20571;-44
2021/06/07 11:41:11;;;;;;;60.58;40.28;;;24.80;45.80;;;;;;4971051;28;20259;-47
2021/06/07 11:43:37;;;;;;;61.85;39.85;;;24.90;45.70;;;;;;4969727;28;20209;-52
2021/06/07 11:46:03;;;;;;;62.88;41.83;;;24.90;45.70;;;;;;4964391;28;20219;-48
2021/06/07 11:48:29;;;;;;;62.05;41.13;;;24.90;46.20;;;;;;4970968;28;20204;-52
2021/06/07 11:50:55;;;;;;;69.22;42.85;;;24.90;45.90;;;;;;4970068;28;20548;-45
2021/06/07 11:53:22;;;;;;;57.45;40.65;;;24.90;45.50;;;;;;4970425;28;20251;-45
2021/06/07 11:55:48;;;;;;;65.40;40.85;;;24.90;46.30;;;;;;4964903;28;20246;-47
2021/06/07 11:58:14;;;;;;;68.43;42.45;;;24.90;46.40;;;;;;4969967;28;20200;-48
2021/06/07 12:00:40;;;;;;;66.30;42.33;;;24.90;47.20;;;;;;4969024;28;20211;-48
2021/06/07 12:03:06;;;;;;;66.43;39.55;;;24.90;47.10;;;;;;4970777;28;20209;-48
2021/06/07 12:05:32;;;;;;;64.82;39.65;;;25.00;47.20;;;;;;4967276;28;20224;-47
2021/06/07 12:07:58;;;;;;;64.40;40.90;;;24.90;47.20;;;;;;4969733;28;20223;-47
2021/06/07 12:10:24;;;;;;;63.33;35.80;;;24.90;47.60;;;;;;4960659;28;20196;-48
2021/06/07 12:12:50;;;;;;;58.08;35.67;;;24.90;47.60;;;;;;4970574;28;20232;-50
2021/06/07 12:15:16;;;;;;;50.20;32.00;;;24.90;47.30;;;;;;4970347;28;20414;-48
2021/06/07 12:17:42;;;;;;;42.85;24.83;;;24.90;47.10;;;;;;4972683;28;20309;-52
2021/06/07 12:20:08;;;;;;;38.88;24.75;;;24.80;46.70;;;;;;4974242;28;20197;-51
2021/06/07 12:22:34;;;;;;;38.88;18.88;;;24.80;47.10;;;;;;4975582;28;20215;-51
2021/06/07 12:25:12;;;;;;;23.92;17.35;;;24.80;46.40;;;;;;4959086;28;20268;-49
2021/06/07 12:30:22;;;;;;;24.05;13.55;;;24.80;45.40;;;;;;4973993;28;20243;-50
2021/06/07 12:32:53;;;;;;;24.75;13.50;;;24.80;45.20;;;;;;4971071;28;20303;-50
2021/06/07 12:35:19;;;;;;;18.02;10.48;;;24.80;45.30;;;;;;4971456;28;20342;-51
2021/06/07 12:37:45;;;;;;;16.95;10.98;;;24.80;45.10;;;;;;4972860;28;22550;-52
2021/06/07 12:40:11;;;;;;;13.45;9.30;;;24.80;45.70;;;;;;4971541;28;20251;-51
2021/06/07 12:42:37;;;;;;;11.05;7.55;;;24.80;45.50;;;;;;4973520;28;20205;-46